sensor_id;sensor_type;location;lat;lon;timestamp;temperature;humidity
65876;HTU21D;52657;51.128;5.938;2022-12-18T00:00:57;-2.16;69.80
65876;HTU21D;52657;51.128;5.938;2022-12-18T00:03:23;-2.16;69.60
65876;HTU21D;52657;51.128;5.938;2022-12-18T00:05:50;-2.21;69.61
65876;HTU21D;52657;51.128;5.938;2022-12-18T00:08:17;-2.24;69.68
65876;HTU21D;52657;51.128;5.938;2022-12-18T00:10:43;-2.23;69.80
65876;HTU21D;52657;51.128;5.938;2022-12-18T00:13:10;-2.23;69.84
65876;HTU21D;52657;51.128;5.938;2022-12-18T00:15:37;-2.22;69.64
65876;HTU21D;52657;51.128;5.938;2022-12-18T00:18:03;-2.24;69.62
65876;HTU21D;52657;51.128;5.938;2022-12-18T00:20:29;-2.27;69.35
65876;HTU21D;52657;51.128;5.938;2022-12-18T00:22:55;-2.29;69.45
65876;HTU21D;52657;51.128;5.938;2022-12-18T00:25:21;-2.31;69.58
65876;HTU21D;52657;51.128;5.938;2022-12-18T00:27:47;-2.31;69.68
65876;HTU21D;52657;51.128;5.938;2022-12-18T00:30:14;-2.31;69.48
65876;HTU21D;52657;51.128;5.938;2022-12-18T00:32:40;-2.31;69.32
65876;HTU21D;52657;51.128;5.938;2022-12-18T00:35:07;-2.32;69.21
65876;HTU21D;52657;51.128;5.938;2022-12-18T00:37:36;-2.32;69.09
65876;HTU21D;52657;51.128;5.938;2022-12-18T00:40:02;-2.32;69.16
65876;HTU21D;52657;51.128;5.938;2022-12-18T00:42:28;-2.33;69.18
65876;HTU21D;52657;51.128;5.938;2022-12-18T00:45:12;-2.34;69.14
65876;HTU21D;52657;51.128;5.938;2022-12-18T00:47:38;-2.35;69.11
65876;HTU21D;52657;51.128;5.938;2022-12-18T00:50:05;-2.38;69.11
65876;HTU21D;52657;51.128;5.938;2022-12-18T00:52:31;-2.43;69.20
65876;HTU21D;52657;51.128;5.938;2022-12-18T00:54:56;-2.45;69.35
65876;HTU21D;52657;51.128;5.938;2022-12-18T00:57:23;-2.46;69.39
65876;HTU21D;52657;51.128;5.938;2022-12-18T00:59:49;-2.46;69.33
65876;HTU21D;52657;51.128;5.938;2022-12-18T01:02:14;-2.46;69.29
65876;HTU21D;52657;51.128;5.938;2022-12-18T01:04:42;-2.50;69.23
65876;HTU21D;52657;51.128;5.938;2022-12-18T01:07:07;-2.53;69.24
65876;HTU21D;52657;51.128;5.938;2022-12-18T01:09:33;-2.56;69.33
65876;HTU21D;52657;51.128;5.938;2022-12-18T01:12:00;-2.61;69.41
65876;HTU21D;52657;51.128;5.938;2022-12-18T01:14:26;-2.67;69.60
65876;HTU21D;52657;51.128;5.938;2022-12-18T01:16:52;-2.76;69.84
65876;HTU21D;52657;51.128;5.938;2022-12-18T01:19:18;-2.80;70.09
65876;HTU21D;52657;51.128;5.938;2022-12-18T01:21:45;-2.86;70.30
65876;HTU21D;52657;51.128;5.938;2022-12-18T01:24:12;-2.88;70.35
65876;HTU21D;52657;51.128;5.938;2022-12-18T01:26:38;-2.90;70.42
65876;HTU21D;52657;51.128;5.938;2022-12-18T01:29:04;-2.92;70.64
65876;HTU21D;52657;51.128;5.938;2022-12-18T01:31:32;-2.90;70.81
65876;HTU21D;52657;51.128;5.938;2022-12-18T01:34:02;-2.89;70.71
65876;HTU21D;52657;51.128;5.938;2022-12-18T01:36:31;-2.89;70.53
65876;HTU21D;52657;51.128;5.938;2022-12-18T01:39:00;-2.91;70.63
65876;HTU21D;52657;51.128;5.938;2022-12-18T01:41:30;-2.89;70.60
65876;HTU21D;52657;51.128;5.938;2022-12-18T01:50:11;-2.87;70.22
65876;HTU21D;52657;51.128;5.938;2022-12-18T01:52:45;-2.91;70.17
65876;HTU21D;52657;51.128;5.938;2022-12-18T01:55:14;-2.92;70.26
65876;HTU21D;52657;51.128;5.938;2022-12-18T01:57:41;-2.92;70.29
65876;HTU21D;52657;51.128;5.938;2022-12-18T02:00:14;-2.94;70.38
65876;HTU21D;52657;51.128;5.938;2022-12-18T02:02:41;-2.95;70.42
65876;HTU21D;52657;51.128;5.938;2022-12-18T02:05:10;-2.95;70.45
65876;HTU21D;52657;51.128;5.938;2022-12-18T02:08:13;-2.94;70.42
65876;HTU21D;52657;51.128;5.938;2022-12-18T02:11:11;-2.94;70.43
65876;HTU21D;52657;51.128;5.938;2022-12-18T02:16:34;-2.95;70.41
65876;HTU21D;52657;51.128;5.938;2022-12-18T02:24:41;-2.97;70.12
65876;HTU21D;52657;51.128;5.938;2022-12-18T02:27:09;-3.01;70.13
65876;HTU21D;52657;51.128;5.938;2022-12-18T02:29:38;-3.03;70.15
65876;HTU21D;52657;51.128;5.938;2022-12-18T02:32:15;-3.04;70.25
65876;HTU21D;52657;51.128;5.938;2022-12-18T02:34:44;-3.05;70.39
65876;HTU21D;52657;51.128;5.938;2022-12-18T02:37:18;-3.05;70.45
65876;HTU21D;52657;51.128;5.938;2022-12-18T02:39:49;-3.04;70.22
65876;HTU21D;52657;51.128;5.938;2022-12-18T02:42:18;-3.07;70.15
65876;HTU21D;52657;51.128;5.938;2022-12-18T02:44:46;-3.08;70.19
65876;HTU21D;52657;51.128;5.938;2022-12-18T02:47:19;-3.10;70.15
65876;HTU21D;52657;51.128;5.938;2022-12-18T02:58:58;-3.21;70.34
65876;HTU21D;52657;51.128;5.938;2022-12-18T03:04:39;-3.18;70.41
65876;HTU21D;52657;51.128;5.938;2022-12-18T03:07:18;-3.21;70.39
65876;HTU21D;52657;51.128;5.938;2022-12-18T03:09:50;-3.21;70.38
65876;HTU21D;52657;51.128;5.938;2022-12-18T03:12:36;-3.23;70.42
65876;HTU21D;52657;51.128;5.938;2022-12-18T03:15:27;-3.21;70.39
65876;HTU21D;52657;51.128;5.938;2022-12-18T03:18:10;-3.20;70.47
65876;HTU21D;52657;51.128;5.938;2022-12-18T03:20:43;-3.18;70.33
65876;HTU21D;52657;51.128;5.938;2022-12-18T03:23:17;-3.17;70.13
65876;HTU21D;52657;51.128;5.938;2022-12-18T03:25:50;-3.20;70.07
65876;HTU21D;52657;51.128;5.938;2022-12-18T03:28:20;-3.20;70.03
65876;HTU21D;52657;51.128;5.938;2022-12-18T03:30:57;-3.20;70.09
65876;HTU21D;52657;51.128;5.938;2022-12-18T03:33:40;-3.20;70.13
65876;HTU21D;52657;51.128;5.938;2022-12-18T03:36:07;-3.22;70.13
65876;HTU21D;52657;51.128;5.938;2022-12-18T03:38:33;-3.25;70.17
65876;HTU21D;52657;51.128;5.938;2022-12-18T03:41:15;-3.28;70.35
65876;HTU21D;52657;51.128;5.938;2022-12-18T03:44:23;-3.31;70.57
65876;HTU21D;52657;51.128;5.938;2022-12-18T03:47:14;-3.31;70.71
65876;HTU21D;52657;51.128;5.938;2022-12-18T03:49:50;-3.31;71.16
65876;HTU21D;52657;51.128;5.938;2022-12-18T03:55:17;-3.27;71.51
65876;HTU21D;52657;51.128;5.938;2022-12-18T03:57:48;-3.25;71.29
65876;HTU21D;52657;51.128;5.938;2022-12-18T04:00:17;-3.26;71.22
65876;HTU21D;52657;51.128;5.938;2022-12-18T04:03:04;-3.26;71.13
65876;HTU21D;52657;51.128;5.938;2022-12-18T04:05:40;-3.24;71.07
65876;HTU21D;52657;51.128;5.938;2022-12-18T04:08:08;-3.25;71.01
65876;HTU21D;52657;51.128;5.938;2022-12-18T04:10:38;-3.25;70.91
65876;HTU21D;52657;51.128;5.938;2022-12-18T04:13:04;-3.24;70.88
65876;HTU21D;52657;51.128;5.938;2022-12-18T04:15:33;-3.24;70.87
65876;HTU21D;52657;51.128;5.938;2022-12-18T04:18:01;-3.25;70.84
65876;HTU21D;52657;51.128;5.938;2022-12-18T04:20:35;-3.25;71.00
65876;HTU21D;52657;51.128;5.938;2022-12-18T04:23:02;-3.27;71.08
65876;HTU21D;52657;51.128;5.938;2022-12-18T04:25:28;-3.28;71.06
65876;HTU21D;52657;51.128;5.938;2022-12-18T04:28:05;-3.30;71.08
65876;HTU21D;52657;51.128;5.938;2022-12-18T04:30:32;-3.28;71.13
65876;HTU21D;52657;51.128;5.938;2022-12-18T04:32:58;-3.30;71.10
65876;HTU21D;52657;51.128;5.938;2022-12-18T04:35:24;-3.27;71.01
65876;HTU21D;52657;51.128;5.938;2022-12-18T04:37:49;-3.26;70.92
65876;HTU21D;52657;51.128;5.938;2022-12-18T04:40:15;-3.25;70.88
65876;HTU21D;52657;51.128;5.938;2022-12-18T04:42:44;-3.22;70.80
65876;HTU21D;52657;51.128;5.938;2022-12-18T04:45:10;-3.20;70.68
65876;HTU21D;52657;51.128;5.938;2022-12-18T04:47:36;-3.16;70.54
65876;HTU21D;52657;51.128;5.938;2022-12-18T04:50:02;-3.10;70.45
65876;HTU21D;52657;51.128;5.938;2022-12-18T04:52:28;-3.06;70.26
65876;HTU21D;52657;51.128;5.938;2022-12-18T04:54:53;-3.02;70.09
65876;HTU21D;52657;51.128;5.938;2022-12-18T04:57:19;-2.98;69.89
65876;HTU21D;52657;51.128;5.938;2022-12-18T04:59:45;-2.95;69.71
65876;HTU21D;52657;51.128;5.938;2022-12-18T05:02:11;-2.94;69.57
65876;HTU21D;52657;51.128;5.938;2022-12-18T05:04:36;-2.92;69.55
65876;HTU21D;52657;51.128;5.938;2022-12-18T05:07:02;-2.93;69.57
65876;HTU21D;52657;51.128;5.938;2022-12-18T05:09:28;-2.94;69.41
65876;HTU21D;52657;51.128;5.938;2022-12-18T05:11:54;-2.96;69.29
65876;HTU21D;52657;51.128;5.938;2022-12-18T05:14:19;-2.94;69.07
65876;HTU21D;52657;51.128;5.938;2022-12-18T05:16:45;-2.93;68.96
65876;HTU21D;52657;51.128;5.938;2022-12-18T05:19:11;-2.93;68.88
65876;HTU21D;52657;51.128;5.938;2022-12-18T05:21:36;-2.94;68.58
65876;HTU21D;52657;51.128;5.938;2022-12-18T05:24:02;-2.94;68.78
65876;HTU21D;52657;51.128;5.938;2022-12-18T05:26:28;-2.95;69.01
65876;HTU21D;52657;51.128;5.938;2022-12-18T05:28:54;-2.95;69.26
65876;HTU21D;52657;51.128;5.938;2022-12-18T05:31:19;-2.98;69.11
65876;HTU21D;52657;51.128;5.938;2022-12-18T05:33:45;-3.02;68.97
65876;HTU21D;52657;51.128;5.938;2022-12-18T05:36:11;-3.06;69.14
65876;HTU21D;52657;51.128;5.938;2022-12-18T05:38:38;-3.08;69.17
65876;HTU21D;52657;51.128;5.938;2022-12-18T05:41:04;-3.11;69.86
65876;HTU21D;52657;51.128;5.938;2022-12-18T05:43:31;-3.12;70.49
65876;HTU21D;52657;51.128;5.938;2022-12-18T05:46:06;-3.11;71.03
65876;HTU21D;52657;51.128;5.938;2022-12-18T05:48:32;-3.12;71.11
65876;HTU21D;52657;51.128;5.938;2022-12-18T05:51:04;-3.10;71.59
65876;HTU21D;52657;51.128;5.938;2022-12-18T05:53:31;-3.12;71.77
65876;HTU21D;52657;51.128;5.938;2022-12-18T05:56:01;-3.08;71.99
65876;HTU21D;52657;51.128;5.938;2022-12-18T05:58:27;-3.07;72.25
65876;HTU21D;52657;51.128;5.938;2022-12-18T06:00:52;-3.04;72.85
65876;HTU21D;52657;51.128;5.938;2022-12-18T06:03:18;-3.05;72.62
65876;HTU21D;52657;51.128;5.938;2022-12-18T06:05:45;-3.06;72.53
65876;HTU21D;52657;51.128;5.938;2022-12-18T06:08:12;-3.06;72.51
65876;HTU21D;52657;51.128;5.938;2022-12-18T06:10:40;-3.07;72.70
65876;HTU21D;52657;51.128;5.938;2022-12-18T06:13:06;-3.09;73.34
65876;HTU21D;52657;51.128;5.938;2022-12-18T06:15:35;-3.10;73.78
65876;HTU21D;52657;51.128;5.938;2022-12-18T06:18:01;-3.08;74.09
65876;HTU21D;52657;51.128;5.938;2022-12-18T06:20:30;-3.07;74.03
65876;HTU21D;52657;51.128;5.938;2022-12-18T06:22:56;-3.07;74.25
65876;HTU21D;52657;51.128;5.938;2022-12-18T06:25:21;-3.09;74.50
65876;HTU21D;52657;51.128;5.938;2022-12-18T06:27:48;-3.07;74.74
65876;HTU21D;52657;51.128;5.938;2022-12-18T06:30:14;-3.02;74.90
65876;HTU21D;52657;51.128;5.938;2022-12-18T06:32:40;-3.00;74.95
65876;HTU21D;52657;51.128;5.938;2022-12-18T06:35:06;-2.96;74.65
65876;HTU21D;52657;51.128;5.938;2022-12-18T06:37:32;-2.94;74.58
65876;HTU21D;52657;51.128;5.938;2022-12-18T06:39:58;-2.90;74.55
65876;HTU21D;52657;51.128;5.938;2022-12-18T06:42:24;-2.87;74.37
65876;HTU21D;52657;51.128;5.938;2022-12-18T06:44:50;-2.82;73.73
65876;HTU21D;52657;51.128;5.938;2022-12-18T06:47:15;-2.77;73.22
65876;HTU21D;52657;51.128;5.938;2022-12-18T06:49:41;-2.74;72.83
65876;HTU21D;52657;51.128;5.938;2022-12-18T06:52:07;-2.72;72.55
65876;HTU21D;52657;51.128;5.938;2022-12-18T06:54:33;-2.69;72.48
65876;HTU21D;52657;51.128;5.938;2022-12-18T06:56:58;-2.67;72.32
65876;HTU21D;52657;51.128;5.938;2022-12-18T06:59:24;-2.67;72.35
65876;HTU21D;52657;51.128;5.938;2022-12-18T07:01:50;-2.69;72.41
65876;HTU21D;52657;51.128;5.938;2022-12-18T07:04:15;-2.71;72.46
65876;HTU21D;52657;51.128;5.938;2022-12-18T07:06:41;-2.72;72.23
65876;HTU21D;52657;51.128;5.938;2022-12-18T07:09:07;-2.73;72.13
65876;HTU21D;52657;51.128;5.938;2022-12-18T07:11:33;-2.71;72.06
65876;HTU21D;52657;51.128;5.938;2022-12-18T07:13:59;-2.68;71.81
65876;HTU21D;52657;51.128;5.938;2022-12-18T07:16:24;-2.66;71.78
65876;HTU21D;52657;51.128;5.938;2022-12-18T07:18:50;-2.66;71.57
65876;HTU21D;52657;51.128;5.938;2022-12-18T07:21:18;-2.69;71.67
65876;HTU21D;52657;51.128;5.938;2022-12-18T07:23:44;-2.72;71.96
65876;HTU21D;52657;51.128;5.938;2022-12-18T07:26:13;-2.73;72.20
65876;HTU21D;52657;51.128;5.938;2022-12-18T07:28:40;-2.69;71.96
65876;HTU21D;52657;51.128;5.938;2022-12-18T07:31:12;-2.67;71.62
65876;HTU21D;52657;51.128;5.938;2022-12-18T07:33:38;-2.68;71.74
65876;HTU21D;52657;51.128;5.938;2022-12-18T07:36:06;-2.71;72.22
65876;HTU21D;52657;51.128;5.938;2022-12-18T07:38:34;-2.76;72.64
65876;HTU21D;52657;51.128;5.938;2022-12-18T07:41:06;-2.81;73.03
65876;HTU21D;52657;51.128;5.938;2022-12-18T07:43:33;-2.82;73.35
65876;HTU21D;52657;51.128;5.938;2022-12-18T07:45:59;-2.82;73.54
65876;HTU21D;52657;51.128;5.938;2022-12-18T07:48:25;-2.78;73.39
65876;HTU21D;52657;51.128;5.938;2022-12-18T07:50:52;-2.80;73.66
65876;HTU21D;52657;51.128;5.938;2022-12-18T07:53:18;-2.78;73.61
65876;HTU21D;52657;51.128;5.938;2022-12-18T07:55:44;-2.77;73.16
65876;HTU21D;52657;51.128;5.938;2022-12-18T07:58:10;-2.73;72.92
65876;HTU21D;52657;51.128;5.938;2022-12-18T08:00:37;-2.74;73.20
65876;HTU21D;52657;51.128;5.938;2022-12-18T08:03:02;-2.68;73.58
65876;HTU21D;52657;51.128;5.938;2022-12-18T08:05:28;-2.62;73.95
65876;HTU21D;52657;51.128;5.938;2022-12-18T08:07:54;-2.58;73.77
65876;HTU21D;52657;51.128;5.938;2022-12-18T08:10:20;-2.58;72.99
65876;HTU21D;52657;51.128;5.938;2022-12-18T08:12:49;-2.53;72.64
65876;HTU21D;52657;51.128;5.938;2022-12-18T08:15:16;-2.52;72.37
65876;HTU21D;52657;51.128;5.938;2022-12-18T08:17:42;-2.50;72.32
65876;HTU21D;52657;51.128;5.938;2022-12-18T08:20:08;-2.48;72.52
65876;HTU21D;52657;51.128;5.938;2022-12-18T08:22:35;-2.43;73.29
65876;HTU21D;52657;51.128;5.938;2022-12-18T08:25:02;-2.35;73.45
65876;HTU21D;52657;51.128;5.938;2022-12-18T08:27:28;-2.33;73.22
65876;HTU21D;52657;51.128;5.938;2022-12-18T08:29:53;-2.31;72.55
65876;HTU21D;52657;51.128;5.938;2022-12-18T08:32:19;-2.24;72.07
65876;HTU21D;52657;51.128;5.938;2022-12-18T08:34:44;-2.17;71.71
65876;HTU21D;52657;51.128;5.938;2022-12-18T08:37:10;-1.99;71.62
65876;HTU21D;52657;51.128;5.938;2022-12-18T08:39:36;-1.74;71.14
65876;HTU21D;52657;51.128;5.938;2022-12-18T08:42:02;-1.55;70.45
65876;HTU21D;52657;51.128;5.938;2022-12-18T08:44:46;-1.33;69.82
65876;HTU21D;52657;51.128;5.938;2022-12-18T08:47:12;-1.13;69.24
65876;HTU21D;52657;51.128;5.938;2022-12-18T08:49:37;-1.04;68.43
65876;HTU21D;52657;51.128;5.938;2022-12-18T08:52:03;-1.09;67.91
65876;HTU21D;52657;51.128;5.938;2022-12-18T08:54:29;-1.13;67.81
65876;HTU21D;52657;51.128;5.938;2022-12-18T08:56:55;-1.13;67.93
65876;HTU21D;52657;51.128;5.938;2022-12-18T08:59:21;-1.15;67.84
65876;HTU21D;52657;51.128;5.938;2022-12-18T09:01:47;-1.13;67.84
65876;HTU21D;52657;51.128;5.938;2022-12-18T09:04:13;-1.09;67.81
65876;HTU21D;52657;51.128;5.938;2022-12-18T09:06:42;-1.08;67.86
65876;HTU21D;52657;51.128;5.938;2022-12-18T09:09:09;-1.01;67.91
65876;HTU21D;52657;51.128;5.938;2022-12-18T09:11:35;-0.96;67.75
65876;HTU21D;52657;51.128;5.938;2022-12-18T09:14:01;-0.87;67.67
65876;HTU21D;52657;51.128;5.938;2022-12-18T09:16:28;-0.83;67.43
65876;HTU21D;52657;51.128;5.938;2022-12-18T09:18:55;-0.79;67.29
65876;HTU21D;52657;51.128;5.938;2022-12-18T09:21:28;-0.77;67.25
65876;HTU21D;52657;51.128;5.938;2022-12-18T09:23:55;-0.76;67.16
65876;HTU21D;52657;51.128;5.938;2022-12-18T09:26:22;-0.76;67.27
65876;HTU21D;52657;51.128;5.938;2022-12-18T09:28:51;-0.74;67.32
65876;HTU21D;52657;51.128;5.938;2022-12-18T09:31:23;-0.72;67.34
65876;HTU21D;52657;51.128;5.938;2022-12-18T09:33:49;-0.68;67.28
65876;HTU21D;52657;51.128;5.938;2022-12-18T09:36:16;-0.60;67.27
65876;HTU21D;52657;51.128;5.938;2022-12-18T09:38:43;-0.55;67.07
65876;HTU21D;52657;51.128;5.938;2022-12-18T09:44:00;-0.40;66.82
65876;HTU21D;52657;51.128;5.938;2022-12-18T09:46:31;-0.37;66.56
65876;HTU21D;52657;51.128;5.938;2022-12-18T09:49:02;-0.32;66.54
65876;HTU21D;52657;51.128;5.938;2022-12-18T09:51:39;-0.26;66.48
65876;HTU21D;52657;51.128;5.938;2022-12-18T09:54:18;-0.17;66.48
65876;HTU21D;52657;51.128;5.938;2022-12-18T09:56:46;-0.09;66.25
65876;HTU21D;52657;51.128;5.938;2022-12-18T09:59:35;-0.02;66.00
65876;HTU21D;52657;51.128;5.938;2022-12-18T10:02:18;0.12;66.04
65876;HTU21D;52657;51.128;5.938;2022-12-18T10:05:00;0.14;65.55
65876;HTU21D;52657;51.128;5.938;2022-12-18T10:10:34;0.27;65.32
65876;HTU21D;52657;51.128;5.938;2022-12-18T10:13:23;0.39;65.14
65876;HTU21D;52657;51.128;5.938;2022-12-18T10:15:57;0.44;64.94
65876;HTU21D;52657;51.128;5.938;2022-12-18T10:21:50;0.57;64.76
65876;HTU21D;52657;51.128;5.938;2022-12-18T10:27:17;0.68;64.33
65876;HTU21D;52657;51.128;5.938;2022-12-18T10:29:45;0.75;64.21
65876;HTU21D;52657;51.128;5.938;2022-12-18T10:32:21;0.69;64.01
65876;HTU21D;52657;51.128;5.938;2022-12-18T10:34:50;0.72;64.26
65876;HTU21D;52657;51.128;5.938;2022-12-18T10:37:19;0.73;64.08
65876;HTU21D;52657;51.128;5.938;2022-12-18T10:42:33;0.75;64.01
65876;HTU21D;52657;51.128;5.938;2022-12-18T10:45:17;0.78;64.34
65876;HTU21D;52657;51.128;5.938;2022-12-18T10:47:48;0.82;64.37
65876;HTU21D;52657;51.128;5.938;2022-12-18T10:50:29;0.88;64.21
65876;HTU21D;52657;51.128;5.938;2022-12-18T10:53:00;0.86;64.10
65876;HTU21D;52657;51.128;5.938;2022-12-18T10:55:37;0.88;64.21
65876;HTU21D;52657;51.128;5.938;2022-12-18T10:58:28;0.90;64.11
65876;HTU21D;52657;51.128;5.938;2022-12-18T11:03:33;0.92;64.40
65876;HTU21D;52657;51.128;5.938;2022-12-18T11:06:07;0.97;64.79
65876;HTU21D;52657;51.128;5.938;2022-12-18T11:08:33;0.95;65.14
65876;HTU21D;52657;51.128;5.938;2022-12-18T11:10:59;0.98;64.68
65876;HTU21D;52657;51.128;5.938;2022-12-18T11:13:30;1.02;64.53
65876;HTU21D;52657;51.128;5.938;2022-12-18T11:15:58;1.04;64.33
65876;HTU21D;52657;51.128;5.938;2022-12-18T11:18:31;1.11;64.34
65876;HTU21D;52657;51.128;5.938;2022-12-18T11:21:18;1.13;64.11
65876;HTU21D;52657;51.128;5.938;2022-12-18T11:23:53;1.11;64.06
65876;HTU21D;52657;51.128;5.938;2022-12-18T11:26:20;1.13;64.79
65876;HTU21D;52657;51.128;5.938;2022-12-18T11:29:07;1.12;64.95
65876;HTU21D;52657;51.128;5.938;2022-12-18T11:31:33;1.16;64.68
65876;HTU21D;52657;51.128;5.938;2022-12-18T11:36:38;1.24;64.15
65876;HTU21D;52657;51.128;5.938;2022-12-18T11:39:20;1.34;64.07
65876;HTU21D;52657;51.128;5.938;2022-12-18T11:42:14;1.40;63.76
65876;HTU21D;52657;51.128;5.938;2022-12-18T11:49:55;1.48;65.19
65876;HTU21D;52657;51.128;5.938;2022-12-18T11:52:36;1.56;65.30
65876;HTU21D;52657;51.128;5.938;2022-12-18T12:00:31;1.64;64.11
65876;HTU21D;52657;51.128;5.938;2022-12-18T12:03:19;1.73;64.02
65876;HTU21D;52657;51.128;5.938;2022-12-18T12:06:39;1.73;64.03
65876;HTU21D;52657;51.128;5.938;2022-12-18T12:09:00;1.71;64.30
65876;HTU21D;52657;51.128;5.938;2022-12-18T12:17:34;1.68;63.79
65876;HTU21D;52657;51.128;5.938;2022-12-18T12:20:24;1.69;63.84
65876;HTU21D;52657;51.128;5.938;2022-12-18T12:25:46;1.75;64.51
65876;HTU21D;52657;51.128;5.938;2022-12-18T12:34:19;1.78;64.21
65876;HTU21D;52657;51.128;5.938;2022-12-18T12:39:39;1.82;63.79
65876;HTU21D;52657;51.128;5.938;2022-12-18T12:42:18;1.81;63.65
65876;HTU21D;52657;51.128;5.938;2022-12-18T12:45:06;1.83;64.05
65876;HTU21D;52657;51.128;5.938;2022-12-18T12:47:42;1.86;64.41
65876;HTU21D;52657;51.128;5.938;2022-12-18T12:50:16;1.91;64.01
65876;HTU21D;52657;51.128;5.938;2022-12-18T12:52:52;1.91;63.71
65876;HTU21D;52657;51.128;5.938;2022-12-18T12:55:22;1.90;63.48
65876;HTU21D;52657;51.128;5.938;2022-12-18T13:01:09;1.95;63.37
65876;HTU21D;52657;51.128;5.938;2022-12-18T13:09:00;2.05;63.77
65876;HTU21D;52657;51.128;5.938;2022-12-18T13:11:42;2.08;63.34
65876;HTU21D;52657;51.128;5.938;2022-12-18T13:14:33;2.07;63.15
65876;HTU21D;52657;51.128;5.938;2022-12-18T13:17:16;2.08;62.98
65876;HTU21D;52657;51.128;5.938;2022-12-18T13:19:43;2.11;62.86
65876;HTU21D;52657;51.128;5.938;2022-12-18T13:22:38;2.08;62.72
65876;HTU21D;52657;51.128;5.938;2022-12-18T13:25:31;2.09;62.73
65876;HTU21D;52657;51.128;5.938;2022-12-18T13:28:18;2.13;62.55
65876;HTU21D;52657;51.128;5.938;2022-12-18T13:31:11;2.16;62.57
65876;HTU21D;52657;51.128;5.938;2022-12-18T13:33:46;2.17;62.45
65876;HTU21D;52657;51.128;5.938;2022-12-18T13:36:13;2.17;62.50
65876;HTU21D;52657;51.128;5.938;2022-12-18T13:38:41;2.16;62.47
65876;HTU21D;52657;51.128;5.938;2022-12-18T13:43:47;2.23;62.33
65876;HTU21D;52657;51.128;5.938;2022-12-18T13:46:49;2.24;62.28
65876;HTU21D;52657;51.128;5.938;2022-12-18T13:49:22;2.24;62.41
65876;HTU21D;52657;51.128;5.938;2022-12-18T13:51:51;2.22;62.70
65876;HTU21D;52657;51.128;5.938;2022-12-18T13:54:39;2.20;63.10
65876;HTU21D;52657;51.128;5.938;2022-12-18T13:57:28;2.20;62.58
65876;HTU21D;52657;51.128;5.938;2022-12-18T13:59:55;2.13;62.48
65876;HTU21D;52657;51.128;5.938;2022-12-18T14:02:24;2.15;62.53
65876;HTU21D;52657;51.128;5.938;2022-12-18T14:04:51;2.13;62.41
65876;HTU21D;52657;51.128;5.938;2022-12-18T14:07:21;2.10;62.43
65876;HTU21D;52657;51.128;5.938;2022-12-18T14:09:50;2.13;62.37
65876;HTU21D;52657;51.128;5.938;2022-12-18T14:12:25;2.16;62.23
65876;HTU21D;52657;51.128;5.938;2022-12-18T14:20:34;2.17;62.02
65876;HTU21D;52657;51.128;5.938;2022-12-18T14:23:00;2.12;61.98
65876;HTU21D;52657;51.128;5.938;2022-12-18T14:25:30;2.13;62.05
65876;HTU21D;52657;51.128;5.938;2022-12-18T14:28:13;2.17;62.01
65876;HTU21D;52657;51.128;5.938;2022-12-18T14:30:42;2.21;61.93
65876;HTU21D;52657;51.128;5.938;2022-12-18T14:33:17;2.24;61.83
65876;HTU21D;52657;51.128;5.938;2022-12-18T14:41:02;2.25;61.74
65876;HTU21D;52657;51.128;5.938;2022-12-18T14:43:32;2.30;61.68
65876;HTU21D;52657;51.128;5.938;2022-12-18T14:45:59;2.32;61.53
65876;HTU21D;52657;51.128;5.938;2022-12-18T14:48:40;2.37;61.34
65876;HTU21D;52657;51.128;5.938;2022-12-18T14:51:20;2.37;61.12
65876;HTU21D;52657;51.128;5.938;2022-12-18T14:56:27;2.44;61.09
65876;HTU21D;52657;51.128;5.938;2022-12-18T14:59:00;2.44;60.96
65876;HTU21D;52657;51.128;5.938;2022-12-18T15:01:34;2.42;61.01
65876;HTU21D;52657;51.128;5.938;2022-12-18T15:04:02;2.42;61.09
65876;HTU21D;52657;51.128;5.938;2022-12-18T15:08:57;2.43;61.16
65876;HTU21D;52657;51.128;5.938;2022-12-18T15:11:32;2.40;61.19
65876;HTU21D;52657;51.128;5.938;2022-12-18T15:16:53;2.41;61.41
65876;HTU21D;52657;51.128;5.938;2022-12-18T15:19:22;2.36;61.39
65876;HTU21D;52657;51.128;5.938;2022-12-18T15:21:51;2.37;61.60
65876;HTU21D;52657;51.128;5.938;2022-12-18T15:24:20;2.40;61.59
65876;HTU21D;52657;51.128;5.938;2022-12-18T15:26:48;2.46;61.50
65876;HTU21D;52657;51.128;5.938;2022-12-18T15:29:24;2.47;61.33
65876;HTU21D;52657;51.128;5.938;2022-12-18T15:32:18;2.52;61.30
65876;HTU21D;52657;51.128;5.938;2022-12-18T15:34:45;2.52;61.31
65876;HTU21D;52657;51.128;5.938;2022-12-18T15:37:10;2.55;61.25
65876;HTU21D;52657;51.128;5.938;2022-12-18T15:39:36;2.57;61.16
65876;HTU21D;52657;51.128;5.938;2022-12-18T15:42:01;2.54;61.17
65876;HTU21D;52657;51.128;5.938;2022-12-18T15:44:46;2.54;61.28
65876;HTU21D;52657;51.128;5.938;2022-12-18T15:47:12;2.54;61.28
65876;HTU21D;52657;51.128;5.938;2022-12-18T15:49:39;2.51;61.31
65876;HTU21D;52657;51.128;5.938;2022-12-18T15:52:05;2.49;61.38
65876;HTU21D;52657;51.128;5.938;2022-12-18T15:54:31;2.43;61.57
65876;HTU21D;52657;51.128;5.938;2022-12-18T15:57:18;2.39;61.86
65876;HTU21D;52657;51.128;5.938;2022-12-18T15:59:54;2.38;62.03
65876;HTU21D;52657;51.128;5.938;2022-12-18T16:02:24;2.38;62.05
65876;HTU21D;52657;51.128;5.938;2022-12-18T16:04:51;2.38;62.10
65876;HTU21D;52657;51.128;5.938;2022-12-18T16:07:18;2.38;62.27
65876;HTU21D;52657;51.128;5.938;2022-12-18T16:09:44;2.40;62.22
65876;HTU21D;52657;51.128;5.938;2022-12-18T16:12:19;2.43;62.28
65876;HTU21D;52657;51.128;5.938;2022-12-18T16:14:46;2.45;62.48
65876;HTU21D;52657;51.128;5.938;2022-12-18T16:17:14;2.53;62.36
65876;HTU21D;52657;51.128;5.938;2022-12-18T16:19:43;2.57;62.15
65876;HTU21D;52657;51.128;5.938;2022-12-18T16:22:23;2.59;62.10
65876;HTU21D;52657;51.128;5.938;2022-12-18T16:24:52;2.62;62.08
65876;HTU21D;52657;51.128;5.938;2022-12-18T16:27:19;2.65;61.93
65876;HTU21D;52657;51.128;5.938;2022-12-18T16:29:44;2.58;61.84
65876;HTU21D;52657;51.128;5.938;2022-12-18T16:32:17;2.57;62.23
65876;HTU21D;52657;51.128;5.938;2022-12-18T16:34:43;2.55;62.44
65876;HTU21D;52657;51.128;5.938;2022-12-18T16:37:11;2.58;62.50
65876;HTU21D;52657;51.128;5.938;2022-12-18T16:39:39;2.64;62.50
65876;HTU21D;52657;51.128;5.938;2022-12-18T16:44:35;2.62;62.08
65876;HTU21D;52657;51.128;5.938;2022-12-18T16:47:02;2.64;62.22
65876;HTU21D;52657;51.128;5.938;2022-12-18T16:49:28;2.62;62.16
65876;HTU21D;52657;51.128;5.938;2022-12-18T16:51:54;2.59;62.19
65876;HTU21D;52657;51.128;5.938;2022-12-18T16:54:20;2.56;62.54
65876;HTU21D;52657;51.128;5.938;2022-12-18T16:56:46;2.55;62.79
65876;HTU21D;52657;51.128;5.938;2022-12-18T16:59:14;2.56;62.69
65876;HTU21D;52657;51.128;5.938;2022-12-18T17:01:40;2.55;62.56
65876;HTU21D;52657;51.128;5.938;2022-12-18T17:04:07;2.55;62.63
65876;HTU21D;52657;51.128;5.938;2022-12-18T17:06:35;2.51;62.67
65876;HTU21D;52657;51.128;5.938;2022-12-18T17:09:07;2.46;62.73
65876;HTU21D;52657;51.128;5.938;2022-12-18T17:11:35;2.47;62.89
65876;HTU21D;52657;51.128;5.938;2022-12-18T17:14:09;2.51;63.11
65876;HTU21D;52657;51.128;5.938;2022-12-18T17:16:35;2.51;63.34
65876;HTU21D;52657;51.128;5.938;2022-12-18T17:19:01;2.52;63.66
65876;HTU21D;52657;51.128;5.938;2022-12-18T17:21:27;2.54;63.48
65876;HTU21D;52657;51.128;5.938;2022-12-18T17:23:53;2.53;63.18
65876;HTU21D;52657;51.128;5.938;2022-12-18T17:26:19;2.50;63.17
65876;HTU21D;52657;51.128;5.938;2022-12-18T17:28:45;2.49;63.27
65876;HTU21D;52657;51.128;5.938;2022-12-18T17:31:18;2.50;63.21
65876;HTU21D;52657;51.128;5.938;2022-12-18T17:33:44;2.49;63.37